Frontier Kotobuki — 3EXC5 — position and weather

sailwx.info

Track history (hours):
 
Tides and Currents Weather Stations Pressure Air Temp Water Temp Dewpoint Dewpoint Depression Visibility Wind Speed Wind Dir Waves Ship Positions

Frontier Kotobuki

Last reported at 2017-Mar-27 15:20 UTC. Time now 2017-Mar-30 20:24 UTC.
Position N 37°59' W 030°53'.

Length 290 m; draft 10.7 m.

Type: Cargo ship. MMSI: 355036000.

Date/timePositionNaut miles runAvg speedWind from/ knotsBaromVisibWave heightAir tempDewpointWater temp
2017-Mar-27 15:20N 37°59' W 030°53'8 9.7
2017-Mar-27 14:32N 38°04' W 030°45'10 9.8
2017-Mar-27 13:33N 38°10' W 030°35'10 9.7
2017-Mar-27 12:33N 38°16' W 030°26'10 9.6
2017-Mar-27 11:33N 38°22' W 030°16'10 9.8
2017-Mar-27 10:33N 38°27' W 030°05'9 9.2
2017-Mar-27 09:33N 38°34' W 029°57'8 7.6
2017-Mar-27 08:33N 38°38' W 029°49'8 7.6
2017-Mar-27 07:31N 38°43' W 029°41'7 7.7
2017-Mar-27 06:33N 38°48' W 029°34'8 7.8
2017-Mar-27 05:33N 38°53' W 029°26'8 8.0
2017-Mar-27 04:33N 38°58' W 029°18'8 8.2
2017-Mar-27 03:33N 39°03' W 029°10'8 8.4
2017-Mar-27 02:34N 39°08' W 029°01'9 8.6
2017-Mar-27 01:33N 39°13' W 028°52'9 8.8
2017-Mar-27 00:33N 39°19' W 028°43'9 8.9
2017-Mar-26 23:33N 39°24' W 028°34'9 8.8
2017-Mar-26 22:33N 39°30' W 028°25'9 9.0
2017-Mar-26 21:33N 39°35' W 028°16'9 8.7
2017-Mar-26 20:33N 39°40' W 028°07'9 8.8
2017-Mar-26 19:33N 39°46' W 027°58'  
2017-Mar-21 19:33N 49°48' W 003°35'8 8.3
2017-Mar-21 18:33N 49°51' W 003°23'8 8.4
2017-Mar-21 17:33N 49°54' W 003°11'8 8.5
2017-Mar-21 16:33N 49°57' W 002°58'8 8.1
2017-Mar-21 15:32N 49°60' W 002°46'8 7.9
2017-Mar-21 14:31N 50°02' W 002°34'15 7.5
2017-Mar-21 12:33N 50°06' W 002°12'8 7.6
2017-Mar-21 11:33N 50°08' W 002°01'8 8.3
2017-Mar-21 10:33N 50°10' W 001°48'9 9.2
2017-Mar-21 09:33N 50°12' W 001°34'1010.1
2017-Mar-21 08:33N 50°15' W 001°19'1510.6
2017-Mar-21 07:06N 50°19' W 000°56'610.2
2017-Mar-21 06:31N 50°21' W 000°47'12 9.8
2017-Mar-21 05:15N 50°24' W 000°28'7 9.1
2017-Mar-21 04:30N 50°26' W 000°18'8 8.6
2017-Mar-21 03:33N 50°28' W 000°06'8 8.1
2017-Mar-21 02:33N 50°31' E 000°07'8 7.7
2017-Mar-21 01:33N 50°33' E 000°18'8 7.6
2017-Mar-21 00:33N 50°35' E 000°30'8 8.0
2017-Mar-20 23:33N 50°38' E 000°41'9 9.0
2017-Mar-20 22:33N 50°44' E 000°52'9 8.4
2017-Mar-20 21:32N 50°48' E 001°04'8 8.5
2017-Mar-20 20:33N 50°53' E 001°14'8 7.7
2017-Mar-20 19:33N 50°58' E 001°23'6 6.5
2017-Mar-20 18:33N 51°03' E 001°30'5 5.2
2017-Mar-20 17:33N 51°07' E 001°36'5 5.0
2017-Mar-20 16:33N 51°11' E 001°41'5 5.4
2017-Mar-20 15:33N 51°15' E 001°47'6 6.3
2017-Mar-20 14:33N 51°20' E 001°52'8 8.0
2017-Mar-20 13:33N 51°27' E 001°58'8 8.2
2017-Mar-20 12:33N 51°33' E 002°06'8 8.2
2017-Mar-20 11:33N 51°40' E 002°15'153 8.5
2017-Mar-19 17:32N 53°56' E 004°10'9 8.9
2017-Mar-19 16:32N 54°02' E 004°23'9 8.7
2017-Mar-19 15:33N 54°03' E 004°37'8 8.3
2017-Mar-19 14:33N 54°04' E 004°51'8 7.8
2017-Mar-19 13:32N 54°05' E 005°05'83 9.0
2017-Mar-19 04:18N 54°13' E 007°26'1810.1
2017-Mar-19 02:32N 54°05' E 007°53'9 9.6
2017-Mar-19 01:33N 54°01' E 008°07'10 9.8
2017-Mar-19 00:33N 53°59' E 008°24'1010.1
2017-Mar-18 23:33N 53°56' E 008°40'1211.9
2017-Mar-18 22:34N 53°51' E 008°58'1312.5
2017-Mar-18 21:34N 53°51' E 009°19'1414.1
2017-Mar-18 20:34N 53°39' E 009°31'1212.1
2017-Mar-18 19:33N 53°33' E 009°49'5 4.4
2017-Mar-18 18:31N 53°31' E 009°56'0 0.0
2017-Mar-18 17:31N 53°31' E 009°56'0 0.0
2017-Mar-18 16:31N 53°31' E 009°56'0 0.0
2017-Mar-18 15:31N 53°31' E 009°56'0 0.0
2017-Mar-18 14:31N 53°31' E 009°56'0 0.0
2017-Mar-18 13:31N 53°31' E 009°56'0 0.0
2017-Mar-18 12:31N 53°31' E 009°56'0 0.0
2017-Mar-18 11:31N 53°31' E 009°56'0 0.0
2017-Mar-18 10:31N 53°31' E 009°56'0 0.0
2017-Mar-18 09:31N 53°31' E 009°56'0 0.0
2017-Mar-18 08:31N 53°31' E 009°56'0 0.0
2017-Mar-18 07:31N 53°31' E 009°56'0 0.0
2017-Mar-18 06:31N 53°31' E 009°56'0 0.0
2017-Mar-18 05:31N 53°31' E 009°56'0 0.0
2017-Mar-18 04:31N 53°31' E 009°56'0 0.0
2017-Mar-18 03:31N 53°31' E 009°56'0 0.0
2017-Mar-18 02:31N 53°31' E 009°56'0 0.0
2017-Mar-18 01:31N 53°31' E 009°56'0 0.0
2017-Mar-18 00:31N 53°31' E 009°56'0 0.0
2017-Mar-17 23:31N 53°31' E 009°56'0 0.0
2017-Mar-17 22:31N 53°31' E 009°56'0 0.0
2017-Mar-17 21:31N 53°31' E 009°56'0 0.0
2017-Mar-17 20:31N 53°31' E 009°56'0 0.0
2017-Mar-17 19:31N 53°31' E 009°56'0 0.0
2017-Mar-17 18:31N 53°31' E 009°56'0 0.0
2017-Mar-17 17:31N 53°31' E 009°56'0 0.0
2017-Mar-17 16:31N 53°31' E 009°56'0 0.0
2017-Mar-17 15:31N 53°31' E 009°56'  
Track history (hours):
 
Tides and Currents Weather Stations Pressure Air Temp Water Temp Dewpoint Dewpoint Depression Visibility Wind Speed Wind Dir Waves Ship Positions

Frontier Kotobuki

Last reported at 2017-Mar-27 15:20 UTC. Time now 2017-Mar-30 20:24 UTC.
Position N 37°59' W 030°53'.

Length 290 m; draft 10.7 m.

Type: Cargo ship. MMSI: 355036000.

Date/timePositionNaut miles runAvg speedWind from/ knotsBaromVisibWave heightAir tempDewpointWater temp
2017-Mar-27 15:20N 37°59' W 030°53'8 9.7
2017-Mar-27 14:32N 38°04' W 030°45'10 9.8
2017-Mar-27 13:33N 38°10' W 030°35'10 9.7
2017-Mar-27 12:33N 38°16' W 030°26'10 9.6
2017-Mar-27 11:33N 38°22' W 030°16'10 9.8
2017-Mar-27 10:33N 38°27' W 030°05'9 9.2
2017-Mar-27 09:33N 38°34' W 029°57'8 7.6
2017-Mar-27 08:33N 38°38' W 029°49'8 7.6
2017-Mar-27 07:31N 38°43' W 029°41'7 7.7
2017-Mar-27 06:33N 38°48' W 029°34'8 7.8
2017-Mar-27 05:33N 38°53' W 029°26'8 8.0
2017-Mar-27 04:33N 38°58' W 029°18'8 8.2
2017-Mar-27 03:33N 39°03' W 029°10'8 8.4
2017-Mar-27 02:34N 39°08' W 029°01'9 8.6
2017-Mar-27 01:33N 39°13' W 028°52'9 8.8
2017-Mar-27 00:33N 39°19' W 028°43'9 8.9
2017-Mar-26 23:33N 39°24' W 028°34'9 8.8
2017-Mar-26 22:33N 39°30' W 028°25'9 9.0
2017-Mar-26 21:33N 39°35' W 028°16'9 8.7
2017-Mar-26 20:33N 39°40' W 028°07'9 8.8
2017-Mar-26 19:33N 39°46' W 027°58'  
2017-Mar-21 19:33N 49°48' W 003°35'8 8.3
2017-Mar-21 18:33N 49°51' W 003°23'8 8.4
2017-Mar-21 17:33N 49°54' W 003°11'8 8.5
2017-Mar-21 16:33N 49°57' W 002°58'8 8.1
2017-Mar-21 15:32N 49°60' W 002°46'8 7.9
2017-Mar-21 14:31N 50°02' W 002°34'15 7.5
2017-Mar-21 12:33N 50°06' W 002°12'8 7.6
2017-Mar-21 11:33N 50°08' W 002°01'8 8.3
2017-Mar-21 10:33N 50°10' W 001°48'9 9.2
2017-Mar-21 09:33N 50°12' W 001°34'1010.1
2017-Mar-21 08:33N 50°15' W 001°19'1510.6
2017-Mar-21 07:06N 50°19' W 000°56'610.2
2017-Mar-21 06:31N 50°21' W 000°47'12 9.8
2017-Mar-21 05:15N 50°24' W 000°28'7 9.1
2017-Mar-21 04:30N 50°26' W 000°18'8 8.6
2017-Mar-21 03:33N 50°28' W 000°06'8 8.1
2017-Mar-21 02:33N 50°31' E 000°07'8 7.7
2017-Mar-21 01:33N 50°33' E 000°18'8 7.6
2017-Mar-21 00:33N 50°35' E 000°30'8 8.0
2017-Mar-20 23:33N 50°38' E 000°41'9 9.0
2017-Mar-20 22:33N 50°44' E 000°52'9 8.4
2017-Mar-20 21:32N 50°48' E 001°04'8 8.5
2017-Mar-20 20:33N 50°53' E 001°14'8 7.7
2017-Mar-20 19:33N 50°58' E 001°23'6 6.5
2017-Mar-20 18:33N 51°03' E 001°30'5 5.2
2017-Mar-20 17:33N 51°07' E 001°36'5 5.0
2017-Mar-20 16:33N 51°11' E 001°41'5 5.4
2017-Mar-20 15:33N 51°15' E 001°47'6 6.3
2017-Mar-20 14:33N 51°20' E 001°52'8 8.0
2017-Mar-20 13:33N 51°27' E 001°58'8 8.2
2017-Mar-20 12:33N 51°33' E 002°06'8 8.2
2017-Mar-20 11:33N 51°40' E 002°15'153 8.5
2017-Mar-19 17:32N 53°56' E 004°10'9 8.9
2017-Mar-19 16:32N 54°02' E 004°23'9 8.7
2017-Mar-19 15:33N 54°03' E 004°37'8 8.3
2017-Mar-19 14:33N 54°04' E 004°51'8 7.8
2017-Mar-19 13:32N 54°05' E 005°05'83 9.0
2017-Mar-19 04:18N 54°13' E 007°26'1810.1
2017-Mar-19 02:32N 54°05' E 007°53'9 9.6
2017-Mar-19 01:33N 54°01' E 008°07'10 9.8
2017-Mar-19 00:33N 53°59' E 008°24'1010.1
2017-Mar-18 23:33N 53°56' E 008°40'1211.9
2017-Mar-18 22:34N 53°51' E 008°58'1312.5
2017-Mar-18 21:34N 53°51' E 009°19'1414.1
2017-Mar-18 20:34N 53°39' E 009°31'1212.1
2017-Mar-18 19:33N 53°33' E 009°49'5 4.4
2017-Mar-18 18:31N 53°31' E 009°56'0 0.0
2017-Mar-18 17:31N 53°31' E 009°56'0 0.0
2017-Mar-18 16:31N 53°31' E 009°56'0 0.0
2017-Mar-18 15:31N 53°31' E 009°56'0 0.0
2017-Mar-18 14:31N 53°31' E 009°56'0 0.0
2017-Mar-18 13:31N 53°31' E 009°56'0 0.0
2017-Mar-18 12:31N 53°31' E 009°56'0 0.0
2017-Mar-18 11:31N 53°31' E 009°56'0 0.0
2017-Mar-18 10:31N 53°31' E 009°56'0 0.0
2017-Mar-18 09:31N 53°31' E 009°56'0 0.0
2017-Mar-18 08:31N 53°31' E 009°56'0 0.0
2017-Mar-18 07:31N 53°31' E 009°56'0 0.0
2017-Mar-18 06:31N 53°31' E 009°56'0 0.0
2017-Mar-18 05:31N 53°31' E 009°56'0 0.0
2017-Mar-18 04:31N 53°31' E 009°56'0 0.0
2017-Mar-18 03:31N 53°31' E 009°56'0 0.0
2017-Mar-18 02:31N 53°31' E 009°56'0 0.0
2017-Mar-18 01:31N 53°31' E 009°56'0 0.0
2017-Mar-18 00:31N 53°31' E 009°56'0 0.0
2017-Mar-17 23:31N 53°31' E 009°56'0 0.0
2017-Mar-17 22:31N 53°31' E 009°56'0 0.0
2017-Mar-17 21:31N 53°31' E 009°56'0 0.0
2017-Mar-17 20:31N 53°31' E 009°56'0 0.0
2017-Mar-17 19:31N 53°31' E 009°56'0 0.0
2017-Mar-17 18:31N 53°31' E 009°56'0 0.0
2017-Mar-17 17:31N 53°31' E 009°56'0 0.0
2017-Mar-17 16:31N 53°31' E 009°56'0 0.0
2017-Mar-17 15:31N 53°31' E 009°56'  

Dump ship's entire track history